Federal Rideau — VRWG7 — position and weather

sailwx.info

Track history (hours):
 
Tides and Currents Weather Stations Pressure Air Temp Water Temp Dewpoint Dewpoint Depression Visibility Wind Speed Wind Dir Waves Ship Positions

Federal Rideau

Last reported at 2014-Dec-10 21:32 UTC. Time now 2014-Dec-18 17:23 UTC.
Position N 46°32' W 072°12'.

Length 200 m; draft 9.5 m.

Type: Cargo ship. MMSI: 477734000.

Date/timePositionNaut miles runAvg speedWind from/ knotsBaromVisibWave heightAir tempDewpointWater temp
2014-Dec-10 21:32N 46°32' W 072°12'1211.8
2014-Dec-10 20:33N 46°24' W 072°24'1010.1
2014-Dec-10 19:33N 46°17' W 072°36'1110.8
2014-Dec-10 18:33N 46°13' W 072°50'51 1.0
2014-Dec-08 16:18N 45°30' W 073°31'1 0.1
2014-Dec-08 05:20N 45°29' W 073°31'3 4.4
2014-Dec-08 04:33N 45°26' W 073°30'3 2.9
2014-Dec-08 03:22N 45°24' W 073°34'4 4.2
2014-Dec-08 02:32N 45°25' W 073°39'8 8.4
2014-Dec-08 01:33N 45°22' W 073°50'5 4.5
2014-Dec-08 00:33N 45°19' W 073°55'1 1.5
2014-Dec-07 23:33N 45°17' W 073°56'9 9.0
2014-Dec-07 22:33N 45°14' W 074°08'109 9.1
2014-Dec-07 10:34N 44°12' W 076°14'0 0.0
2014-Dec-07 09:34N 44°12' W 076°14'8 8.4
2014-Dec-07 08:33N 44°07' W 076°23'2 1.8
2014-Dec-07 07:30N 44°05' W 076°24'1313.9
2014-Dec-07 06:34N 43°55' W 076°35'0 0.3
2014-Dec-07 05:34N 43°55' W 076°35'164 6.7
2014-Dec-06 05:05N 42°33' W 079°49'  
Track history (hours):
 
Tides and Currents Weather Stations Pressure Air Temp Water Temp Dewpoint Dewpoint Depression Visibility Wind Speed Wind Dir Waves Ship Positions

Federal Rideau

Last reported at 2014-Dec-10 21:32 UTC. Time now 2014-Dec-18 17:23 UTC.
Position N 46°32' W 072°12'.

Length 200 m; draft 9.5 m.

Type: Cargo ship. MMSI: 477734000.

Date/timePositionNaut miles runAvg speedWind from/ knotsBaromVisibWave heightAir tempDewpointWater temp
2014-Dec-10 21:32N 46°32' W 072°12'1211.8
2014-Dec-10 20:33N 46°24' W 072°24'1010.1
2014-Dec-10 19:33N 46°17' W 072°36'1110.8
2014-Dec-10 18:33N 46°13' W 072°50'51 1.0
2014-Dec-08 16:18N 45°30' W 073°31'1 0.1
2014-Dec-08 05:20N 45°29' W 073°31'3 4.4
2014-Dec-08 04:33N 45°26' W 073°30'3 2.9
2014-Dec-08 03:22N 45°24' W 073°34'4 4.2
2014-Dec-08 02:32N 45°25' W 073°39'8 8.4
2014-Dec-08 01:33N 45°22' W 073°50'5 4.5
2014-Dec-08 00:33N 45°19' W 073°55'1 1.5
2014-Dec-07 23:33N 45°17' W 073°56'9 9.0
2014-Dec-07 22:33N 45°14' W 074°08'109 9.1
2014-Dec-07 10:34N 44°12' W 076°14'0 0.0
2014-Dec-07 09:34N 44°12' W 076°14'8 8.4
2014-Dec-07 08:33N 44°07' W 076°23'2 1.8
2014-Dec-07 07:30N 44°05' W 076°24'1313.9
2014-Dec-07 06:34N 43°55' W 076°35'0 0.3
2014-Dec-07 05:34N 43°55' W 076°35'164 6.7
2014-Dec-06 05:05N 42°33' W 079°49'  

Dump ship's entire track history